sensor_id;sensor_type;location;lat;lon;timestamp;temperature;humidity
34766;DHT22;20984;43.508;1.504;2023-09-30T00:02:05;19.30;99.90
34766;DHT22;20984;43.508;1.504;2023-09-30T00:04:30;19.30;99.90
34766;DHT22;20984;43.508;1.504;2023-09-30T00:06:56;19.20;99.90
34766;DHT22;20984;43.508;1.504;2023-09-30T00:09:21;19.20;99.90
34766;DHT22;20984;43.508;1.504;2023-09-30T00:11:47;19.20;99.90
34766;DHT22;20984;43.508;1.504;2023-09-30T00:14:12;19.10;99.90
34766;DHT22;20984;43.508;1.504;2023-09-30T00:16:38;19.10;99.90
34766;DHT22;20984;43.508;1.504;2023-09-30T00:19:03;19.00;99.90
34766;DHT22;20984;43.508;1.504;2023-09-30T00:21:29;19.00;99.90
34766;DHT22;20984;43.508;1.504;2023-09-30T00:23:55;19.00;99.90
34766;DHT22;20984;43.508;1.504;2023-09-30T00:26:20;18.90;99.90
34766;DHT22;20984;43.508;1.504;2023-09-30T00:28:47;18.90;99.90
34766;DHT22;20984;43.508;1.504;2023-09-30T00:31:12;18.80;99.90
34766;DHT22;20984;43.508;1.504;2023-09-30T00:33:38;18.80;99.90
34766;DHT22;20984;43.508;1.504;2023-09-30T00:36:10;18.80;99.90
34766;DHT22;20984;43.508;1.504;2023-09-30T00:38:36;18.80;99.90
34766;DHT22;20984;43.508;1.504;2023-09-30T00:41:02;18.80;99.90
34766;DHT22;20984;43.508;1.504;2023-09-30T00:43:27;18.70;99.90
34766;DHT22;20984;43.508;1.504;2023-09-30T00:46:01;18.70;99.90
34766;DHT22;20984;43.508;1.504;2023-09-30T00:48:26;18.70;99.90
34766;DHT22;20984;43.508;1.504;2023-09-30T00:50:52;18.70;99.90
34766;DHT22;20984;43.508;1.504;2023-09-30T00:53:18;18.70;99.90
34766;DHT22;20984;43.508;1.504;2023-09-30T00:55:43;18.60;99.90
34766;DHT22;20984;43.508;1.504;2023-09-30T00:58:09;18.60;99.90
34766;DHT22;20984;43.508;1.504;2023-09-30T01:00:35;18.50;99.90
34766;DHT22;20984;43.508;1.504;2023-09-30T01:03:00;18.40;99.90
34766;DHT22;20984;43.508;1.504;2023-09-30T01:05:29;18.40;99.90
34766;DHT22;20984;43.508;1.504;2023-09-30T01:07:55;18.30;99.90
34766;DHT22;20984;43.508;1.504;2023-09-30T01:10:21;18.20;99.90
34766;DHT22;20984;43.508;1.504;2023-09-30T01:12:46;18.20;99.90
34766;DHT22;20984;43.508;1.504;2023-09-30T01:15:12;18.10;99.90
34766;DHT22;20984;43.508;1.504;2023-09-30T01:17:37;18.00;99.90
34766;DHT22;20984;43.508;1.504;2023-09-30T01:20:03;17.90;99.90
34766;DHT22;20984;43.508;1.504;2023-09-30T01:22:33;17.90;99.90
34766;DHT22;20984;43.508;1.504;2023-09-30T01:24:58;17.80;99.90
34766;DHT22;20984;43.508;1.504;2023-09-30T01:27:24;17.80;99.90
34766;DHT22;20984;43.508;1.504;2023-09-30T01:29:50;17.80;99.90
34766;DHT22;20984;43.508;1.504;2023-09-30T01:32:16;17.70;99.90
34766;DHT22;20984;43.508;1.504;2023-09-30T01:34:42;17.70;99.90
34766;DHT22;20984;43.508;1.504;2023-09-30T01:37:07;17.70;99.90
34766;DHT22;20984;43.508;1.504;2023-09-30T01:39:33;17.70;99.90
34766;DHT22;20984;43.508;1.504;2023-09-30T01:41:59;17.60;99.90
34766;DHT22;20984;43.508;1.504;2023-09-30T01:44:24;17.60;99.90
34766;DHT22;20984;43.508;1.504;2023-09-30T01:46:51;17.60;99.90
34766;DHT22;20984;43.508;1.504;2023-09-30T01:49:16;17.60;99.90
34766;DHT22;20984;43.508;1.504;2023-09-30T01:51:43;17.60;99.90
34766;DHT22;20984;43.508;1.504;2023-09-30T01:54:09;17.50;99.90
34766;DHT22;20984;43.508;1.504;2023-09-30T01:56:36;17.50;99.90
34766;DHT22;20984;43.508;1.504;2023-09-30T01:59:01;17.40;99.90
34766;DHT22;20984;43.508;1.504;2023-09-30T02:01:27;17.40;99.90
34766;DHT22;20984;43.508;1.504;2023-09-30T02:03:53;17.30;99.90
34766;DHT22;20984;43.508;1.504;2023-09-30T02:06:18;17.30;99.90
34766;DHT22;20984;43.508;1.504;2023-09-30T02:08:44;17.30;99.90
34766;DHT22;20984;43.508;1.504;2023-09-30T02:11:10;17.30;99.90
34766;DHT22;20984;43.508;1.504;2023-09-30T02:13:35;17.30;99.90
34766;DHT22;20984;43.508;1.504;2023-09-30T02:16:01;17.20;99.90
34766;DHT22;20984;43.508;1.504;2023-09-30T02:18:27;17.20;99.90
34766;DHT22;20984;43.508;1.504;2023-09-30T02:20:52;17.20;99.90
34766;DHT22;20984;43.508;1.504;2023-09-30T02:23:18;17.20;99.90
34766;DHT22;20984;43.508;1.504;2023-09-30T02:25:44;17.20;99.90
34766;DHT22;20984;43.508;1.504;2023-09-30T02:28:10;17.10;99.90
34766;DHT22;20984;43.508;1.504;2023-09-30T02:30:35;17.10;99.90
34766;DHT22;20984;43.508;1.504;2023-09-30T02:33:01;17.10;99.90
34766;DHT22;20984;43.508;1.504;2023-09-30T02:35:27;17.00;99.90
34766;DHT22;20984;43.508;1.504;2023-09-30T02:37:52;17.00;99.90
34766;DHT22;20984;43.508;1.504;2023-09-30T02:40:18;17.00;99.90
34766;DHT22;20984;43.508;1.504;2023-09-30T02:42:45;17.00;99.90
34766;DHT22;20984;43.508;1.504;2023-09-30T02:45:11;17.00;99.90
34766;DHT22;20984;43.508;1.504;2023-09-30T02:47:37;16.90;99.90
34766;DHT22;20984;43.508;1.504;2023-09-30T02:50:04;16.90;99.90
34766;DHT22;20984;43.508;1.504;2023-09-30T02:52:30;16.90;99.90
34766;DHT22;20984;43.508;1.504;2023-09-30T02:54:56;16.90;99.90
34766;DHT22;20984;43.508;1.504;2023-09-30T02:57:23;16.90;99.90
34766;DHT22;20984;43.508;1.504;2023-09-30T02:59:48;16.90;99.90
34766;DHT22;20984;43.508;1.504;2023-09-30T03:02:14;16.90;99.90
34766;DHT22;20984;43.508;1.504;2023-09-30T03:04:40;16.90;99.90
34766;DHT22;20984;43.508;1.504;2023-09-30T03:07:07;16.80;99.90
34766;DHT22;20984;43.508;1.504;2023-09-30T03:09:34;16.80;99.90
34766;DHT22;20984;43.508;1.504;2023-09-30T03:11:59;16.90;99.90
34766;DHT22;20984;43.508;1.504;2023-09-30T03:14:25;16.80;99.90
34766;DHT22;20984;43.508;1.504;2023-09-30T03:16:51;16.80;99.90
34766;DHT22;20984;43.508;1.504;2023-09-30T03:19:17;16.80;99.90
34766;DHT22;20984;43.508;1.504;2023-09-30T03:21:43;16.80;99.90
34766;DHT22;20984;43.508;1.504;2023-09-30T03:24:08;16.80;99.90
34766;DHT22;20984;43.508;1.504;2023-09-30T03:26:34;16.80;99.90
34766;DHT22;20984;43.508;1.504;2023-09-30T03:29:00;16.70;99.90
34766;DHT22;20984;43.508;1.504;2023-09-30T03:31:25;16.70;99.90
34766;DHT22;20984;43.508;1.504;2023-09-30T03:33:51;16.70;99.90
34766;DHT22;20984;43.508;1.504;2023-09-30T03:36:22;16.70;99.90
34766;DHT22;20984;43.508;1.504;2023-09-30T03:38:51;16.70;99.90
34766;DHT22;20984;43.508;1.504;2023-09-30T03:41:19;16.60;99.90
34766;DHT22;20984;43.508;1.504;2023-09-30T03:43:45;16.60;99.90
34766;DHT22;20984;43.508;1.504;2023-09-30T03:46:10;16.60;99.90
34766;DHT22;20984;43.508;1.504;2023-09-30T03:48:37;16.60;99.90
34766;DHT22;20984;43.508;1.504;2023-09-30T03:51:14;16.60;99.90
34766;DHT22;20984;43.508;1.504;2023-09-30T03:53:43;16.50;99.90
34766;DHT22;20984;43.508;1.504;2023-09-30T03:56:09;16.50;99.90
34766;DHT22;20984;43.508;1.504;2023-09-30T03:58:37;16.50;99.90
34766;DHT22;20984;43.508;1.504;2023-09-30T04:01:03;16.50;99.90
34766;DHT22;20984;43.508;1.504;2023-09-30T04:03:29;16.50;99.90
34766;DHT22;20984;43.508;1.504;2023-09-30T04:05:55;16.50;99.90
34766;DHT22;20984;43.508;1.504;2023-09-30T04:08:21;16.50;99.90
34766;DHT22;20984;43.508;1.504;2023-09-30T04:10:47;16.40;99.90
34766;DHT22;20984;43.508;1.504;2023-09-30T04:13:13;16.40;99.90
34766;DHT22;20984;43.508;1.504;2023-09-30T04:15:38;16.50;99.90
34766;DHT22;20984;43.508;1.504;2023-09-30T04:18:04;16.40;99.90
34766;DHT22;20984;43.508;1.504;2023-09-30T04:20:33;16.40;99.90
34766;DHT22;20984;43.508;1.504;2023-09-30T04:22:58;16.50;99.90
34766;DHT22;20984;43.508;1.504;2023-09-30T04:25:24;16.40;99.90
34766;DHT22;20984;43.508;1.504;2023-09-30T04:27:50;16.40;99.90
34766;DHT22;20984;43.508;1.504;2023-09-30T04:30:16;16.40;99.90
34766;DHT22;20984;43.508;1.504;2023-09-30T04:32:42;16.40;99.90
34766;DHT22;20984;43.508;1.504;2023-09-30T04:35:07;16.40;99.90
34766;DHT22;20984;43.508;1.504;2023-09-30T04:37:33;16.30;99.90
34766;DHT22;20984;43.508;1.504;2023-09-30T04:39:59;16.30;99.90
34766;DHT22;20984;43.508;1.504;2023-09-30T04:42:24;16.30;99.90
34766;DHT22;20984;43.508;1.504;2023-09-30T04:44:54;16.20;99.90
34766;DHT22;20984;43.508;1.504;2023-09-30T04:47:22;16.20;99.90
34766;DHT22;20984;43.508;1.504;2023-09-30T04:49:49;16.20;99.90
34766;DHT22;20984;43.508;1.504;2023-09-30T04:52:16;16.20;99.90
34766;DHT22;20984;43.508;1.504;2023-09-30T04:54:41;16.10;99.90
34766;DHT22;20984;43.508;1.504;2023-09-30T04:57:07;16.10;99.90
34766;DHT22;20984;43.508;1.504;2023-09-30T04:59:33;16.10;99.90
34766;DHT22;20984;43.508;1.504;2023-09-30T05:01:59;16.10;99.90
34766;DHT22;20984;43.508;1.504;2023-09-30T05:04:25;16.10;99.90
34766;DHT22;20984;43.508;1.504;2023-09-30T05:06:51;16.00;99.90
34766;DHT22;20984;43.508;1.504;2023-09-30T05:09:16;16.00;99.90
34766;DHT22;20984;43.508;1.504;2023-09-30T05:11:42;16.00;99.90
34766;DHT22;20984;43.508;1.504;2023-09-30T05:14:07;16.00;99.90
34766;DHT22;20984;43.508;1.504;2023-09-30T05:16:33;15.90;99.90
34766;DHT22;20984;43.508;1.504;2023-09-30T05:18:58;15.90;99.90
34766;DHT22;20984;43.508;1.504;2023-09-30T05:21:24;15.80;99.90
34766;DHT22;20984;43.508;1.504;2023-09-30T05:23:50;15.80;99.90
34766;DHT22;20984;43.508;1.504;2023-09-30T05:26:15;15.80;99.90
34766;DHT22;20984;43.508;1.504;2023-09-30T05:28:42;15.80;99.90
34766;DHT22;20984;43.508;1.504;2023-09-30T05:31:09;15.70;99.90
34766;DHT22;20984;43.508;1.504;2023-09-30T05:33:36;15.70;99.90
34766;DHT22;20984;43.508;1.504;2023-09-30T05:36:01;15.70;99.90
34766;DHT22;20984;43.508;1.504;2023-09-30T05:38:28;15.70;99.90
34766;DHT22;20984;43.508;1.504;2023-09-30T05:40:54;15.60;99.90
34766;DHT22;20984;43.508;1.504;2023-09-30T05:43:20;15.60;99.90
34766;DHT22;20984;43.508;1.504;2023-09-30T05:45:47;15.60;99.90
34766;DHT22;20984;43.508;1.504;2023-09-30T05:48:16;15.60;99.90
34766;DHT22;20984;43.508;1.504;2023-09-30T05:50:42;15.60;99.90
34766;DHT22;20984;43.508;1.504;2023-09-30T05:53:09;15.60;99.90
34766;DHT22;20984;43.508;1.504;2023-09-30T05:55:36;15.60;99.90
34766;DHT22;20984;43.508;1.504;2023-09-30T05:58:02;15.60;99.90
34766;DHT22;20984;43.508;1.504;2023-09-30T06:00:27;15.50;99.90
34766;DHT22;20984;43.508;1.504;2023-09-30T06:02:59;15.60;99.90
34766;DHT22;20984;43.508;1.504;2023-09-30T06:05:25;15.60;99.90
34766;DHT22;20984;43.508;1.504;2023-09-30T06:07:58;15.60;99.90
34766;DHT22;20984;43.508;1.504;2023-09-30T06:10:23;15.60;99.90
34766;DHT22;20984;43.508;1.504;2023-09-30T06:12:51;15.70;99.90
34766;DHT22;20984;43.508;1.504;2023-09-30T06:15:24;15.70;99.90
34766;DHT22;20984;43.508;1.504;2023-09-30T06:17:53;15.70;99.90
34766;DHT22;20984;43.508;1.504;2023-09-30T06:20:19;15.80;99.90
34766;DHT22;20984;43.508;1.504;2023-09-30T06:22:47;15.80;99.90
34766;DHT22;20984;43.508;1.504;2023-09-30T06:25:16;15.80;99.90
34766;DHT22;20984;43.508;1.504;2023-09-30T06:27:45;15.90;99.90
34766;DHT22;20984;43.508;1.504;2023-09-30T06:30:12;15.90;99.90
34766;DHT22;20984;43.508;1.504;2023-09-30T06:32:38;15.90;99.90
34766;DHT22;20984;43.508;1.504;2023-09-30T06:35:04;15.90;99.90
34766;DHT22;20984;43.508;1.504;2023-09-30T06:37:32;15.90;99.90
34766;DHT22;20984;43.508;1.504;2023-09-30T06:39:57;16.00;99.90
34766;DHT22;20984;43.508;1.504;2023-09-30T06:42:24;16.10;99.90
34766;DHT22;20984;43.508;1.504;2023-09-30T06:44:49;16.10;99.90
34766;DHT22;20984;43.508;1.504;2023-09-30T06:47:15;16.20;99.90
34766;DHT22;20984;43.508;1.504;2023-09-30T06:49:41;16.20;99.90
34766;DHT22;20984;43.508;1.504;2023-09-30T06:52:07;16.20;99.90
34766;DHT22;20984;43.508;1.504;2023-09-30T06:54:32;16.30;99.90
34766;DHT22;20984;43.508;1.504;2023-09-30T06:56:58;16.30;99.90
34766;DHT22;20984;43.508;1.504;2023-09-30T06:59:24;16.40;99.90
34766;DHT22;20984;43.508;1.504;2023-09-30T07:01:50;16.50;99.90
34766;DHT22;20984;43.508;1.504;2023-09-30T07:04:16;16.60;99.90
34766;DHT22;20984;43.508;1.504;2023-09-30T07:06:41;16.70;99.90
34766;DHT22;20984;43.508;1.504;2023-09-30T07:09:07;16.80;99.90
34766;DHT22;20984;43.508;1.504;2023-09-30T07:11:32;16.90;99.90
34766;DHT22;20984;43.508;1.504;2023-09-30T07:13:58;17.00;99.90
34766;DHT22;20984;43.508;1.504;2023-09-30T07:16:24;17.10;99.90
34766;DHT22;20984;43.508;1.504;2023-09-30T07:18:49;17.20;99.90
34766;DHT22;20984;43.508;1.504;2023-09-30T07:21:16;17.40;99.90
34766;DHT22;20984;43.508;1.504;2023-09-30T07:23:41;17.50;99.90
34766;DHT22;20984;43.508;1.504;2023-09-30T07:26:07;17.60;99.90
34766;DHT22;20984;43.508;1.504;2023-09-30T07:28:33;17.80;99.90
34766;DHT22;20984;43.508;1.504;2023-09-30T07:30:58;17.90;99.90
34766;DHT22;20984;43.508;1.504;2023-09-30T07:33:24;18.00;99.90
34766;DHT22;20984;43.508;1.504;2023-09-30T07:35:49;18.20;99.90
34766;DHT22;20984;43.508;1.504;2023-09-30T07:38:15;18.30;99.90
34766;DHT22;20984;43.508;1.504;2023-09-30T07:40:40;18.50;99.90
34766;DHT22;20984;43.508;1.504;2023-09-30T07:43:07;18.60;99.90
34766;DHT22;20984;43.508;1.504;2023-09-30T07:45:32;18.70;99.90
34766;DHT22;20984;43.508;1.504;2023-09-30T07:47:58;18.80;99.90
34766;DHT22;20984;43.508;1.504;2023-09-30T07:50:24;19.00;99.90
34766;DHT22;20984;43.508;1.504;2023-09-30T07:52:49;19.10;99.90
34766;DHT22;20984;43.508;1.504;2023-09-30T07:55:15;19.20;99.90
34766;DHT22;20984;43.508;1.504;2023-09-30T07:57:41;19.30;99.90
34766;DHT22;20984;43.508;1.504;2023-09-30T08:00:08;19.40;99.90
34766;DHT22;20984;43.508;1.504;2023-09-30T08:02:35;19.50;99.90
34766;DHT22;20984;43.508;1.504;2023-09-30T08:05:02;19.60;99.90
34766;DHT22;20984;43.508;1.504;2023-09-30T08:07:27;19.70;99.90
34766;DHT22;20984;43.508;1.504;2023-09-30T08:09:53;19.80;99.90
34766;DHT22;20984;43.508;1.504;2023-09-30T08:12:19;19.80;99.90
34766;DHT22;20984;43.508;1.504;2023-09-30T08:14:44;20.00;99.90
34766;DHT22;20984;43.508;1.504;2023-09-30T08:17:10;20.10;99.90
34766;DHT22;20984;43.508;1.504;2023-09-30T08:19:36;20.20;99.90
34766;DHT22;20984;43.508;1.504;2023-09-30T08:22:02;20.30;99.90
34766;DHT22;20984;43.508;1.504;2023-09-30T08:24:29;20.40;99.90
34766;DHT22;20984;43.508;1.504;2023-09-30T08:26:54;20.50;99.90
34766;DHT22;20984;43.508;1.504;2023-09-30T08:29:21;20.60;99.90
34766;DHT22;20984;43.508;1.504;2023-09-30T08:31:47;20.70;99.90
34766;DHT22;20984;43.508;1.504;2023-09-30T08:34:14;20.80;99.90
34766;DHT22;20984;43.508;1.504;2023-09-30T08:36:45;20.90;99.90
34766;DHT22;20984;43.508;1.504;2023-09-30T08:39:10;21.00;99.90
34766;DHT22;20984;43.508;1.504;2023-09-30T08:41:36;21.00;99.90
34766;DHT22;20984;43.508;1.504;2023-09-30T08:44:02;21.10;99.90
34766;DHT22;20984;43.508;1.504;2023-09-30T08:46:34;21.20;99.90
34766;DHT22;20984;43.508;1.504;2023-09-30T08:49:01;21.40;99.90
34766;DHT22;20984;43.508;1.504;2023-09-30T08:51:27;21.60;99.90
34766;DHT22;20984;43.508;1.504;2023-09-30T08:53:54;21.70;99.90
34766;DHT22;20984;43.508;1.504;2023-09-30T08:56:25;21.80;99.90
34766;DHT22;20984;43.508;1.504;2023-09-30T08:58:52;21.90;99.90
34766;DHT22;20984;43.508;1.504;2023-09-30T09:01:18;22.00;99.90
34766;DHT22;20984;43.508;1.504;2023-09-30T09:03:44;22.00;99.90
34766;DHT22;20984;43.508;1.504;2023-09-30T09:06:09;22.10;99.90
34766;DHT22;20984;43.508;1.504;2023-09-30T09:08:35;22.20;99.90
34766;DHT22;20984;43.508;1.504;2023-09-30T09:11:01;22.20;99.90
34766;DHT22;20984;43.508;1.504;2023-09-30T09:13:28;22.30;99.90
34766;DHT22;20984;43.508;1.504;2023-09-30T09:16:10;22.40;99.90
34766;DHT22;20984;43.508;1.504;2023-09-30T09:18:35;22.50;99.90
34766;DHT22;20984;43.508;1.504;2023-09-30T09:21:11;22.60;99.90
34766;DHT22;20984;43.508;1.504;2023-09-30T09:23:40;22.70;99.90
34766;DHT22;20984;43.508;1.504;2023-09-30T09:26:06;22.90;99.90
34766;DHT22;20984;43.508;1.504;2023-09-30T09:28:36;22.90;99.90
34766;DHT22;20984;43.508;1.504;2023-09-30T09:31:19;23.00;99.90
34766;DHT22;20984;43.508;1.504;2023-09-30T09:33:44;23.10;99.90
34766;DHT22;20984;43.508;1.504;2023-09-30T09:36:10;23.20;99.90
34766;DHT22;20984;43.508;1.504;2023-09-30T09:38:48;23.30;99.90
34766;DHT22;20984;43.508;1.504;2023-09-30T09:41:14;23.30;99.90
34766;DHT22;20984;43.508;1.504;2023-09-30T09:43:41;23.50;99.90
34766;DHT22;20984;43.508;1.504;2023-09-30T09:46:10;23.50;99.90
34766;DHT22;20984;43.508;1.504;2023-09-30T09:48:36;23.50;99.90
34766;DHT22;20984;43.508;1.504;2023-09-30T09:51:02;23.70;99.90
34766;DHT22;20984;43.508;1.504;2023-09-30T09:53:34;23.80;99.90
34766;DHT22;20984;43.508;1.504;2023-09-30T09:56:00;23.90;99.90
34766;DHT22;20984;43.508;1.504;2023-09-30T09:58:26;24.00;99.90
34766;DHT22;20984;43.508;1.504;2023-09-30T10:00:52;24.10;99.90
34766;DHT22;20984;43.508;1.504;2023-09-30T10:03:18;24.20;99.90
34766;DHT22;20984;43.508;1.504;2023-09-30T10:05:44;24.10;99.90
34766;DHT22;20984;43.508;1.504;2023-09-30T10:08:11;24.10;99.90
34766;DHT22;20984;43.508;1.504;2023-09-30T10:10:38;24.20;99.90
34766;DHT22;20984;43.508;1.504;2023-09-30T10:13:04;24.20;99.90
34766;DHT22;20984;43.508;1.504;2023-09-30T10:15:34;24.20;99.90
34766;DHT22;20984;43.508;1.504;2023-09-30T10:18:02;24.30;99.90
34766;DHT22;20984;43.508;1.504;2023-09-30T10:20:33;24.40;99.90
34766;DHT22;20984;43.508;1.504;2023-09-30T10:23:18;24.50;99.90
34766;DHT22;20984;43.508;1.504;2023-09-30T10:25:47;24.60;99.90
34766;DHT22;20984;43.508;1.504;2023-09-30T10:36:28;24.90;99.90
34766;DHT22;20984;43.508;1.504;2023-09-30T10:38:54;25.00;99.90
34766;DHT22;20984;43.508;1.504;2023-09-30T10:46:56;25.30;99.90
34766;DHT22;20984;43.508;1.504;2023-09-30T10:51:51;25.40;99.90
34766;DHT22;20984;43.508;1.504;2023-09-30T10:56:49;25.30;99.90
34766;DHT22;20984;43.508;1.504;2023-09-30T10:59:24;25.40;99.90
34766;DHT22;20984;43.508;1.504;2023-09-30T11:01:50;25.60;99.90
34766;DHT22;20984;43.508;1.504;2023-09-30T11:04:15;25.60;99.90
34766;DHT22;20984;43.508;1.504;2023-09-30T11:06:41;25.60;99.90
34766;DHT22;20984;43.508;1.504;2023-09-30T11:09:07;25.60;99.90
34766;DHT22;20984;43.508;1.504;2023-09-30T11:11:42;25.60;99.90
34766;DHT22;20984;43.508;1.504;2023-09-30T11:16:50;25.70;99.90
34766;DHT22;20984;43.508;1.504;2023-09-30T11:19:16;25.80;99.90
34766;DHT22;20984;43.508;1.504;2023-09-30T11:21:42;25.90;99.90
34766;DHT22;20984;43.508;1.504;2023-09-30T11:24:09;26.00;99.90
34766;DHT22;20984;43.508;1.504;2023-09-30T11:26:35;26.00;99.90
34766;DHT22;20984;43.508;1.504;2023-09-30T11:29:11;26.00;99.90
34766;DHT22;20984;43.508;1.504;2023-09-30T11:31:38;26.00;99.90
34766;DHT22;20984;43.508;1.504;2023-09-30T11:34:04;26.00;99.90
34766;DHT22;20984;43.508;1.504;2023-09-30T11:36:30;26.10;99.90
34766;DHT22;20984;43.508;1.504;2023-09-30T11:38:59;26.10;99.90
34766;DHT22;20984;43.508;1.504;2023-09-30T11:41:36;26.00;99.90
34766;DHT22;20984;43.508;1.504;2023-09-30T11:44:09;26.10;99.90
34766;DHT22;20984;43.508;1.504;2023-09-30T11:46:56;26.20;99.90
34766;DHT22;20984;43.508;1.504;2023-09-30T11:49:30;26.30;99.90
34766;DHT22;20984;43.508;1.504;2023-09-30T11:51:57;26.40;99.90
34766;DHT22;20984;43.508;1.504;2023-09-30T11:54:30;26.50;99.90
34766;DHT22;20984;43.508;1.504;2023-09-30T11:56:57;26.50;99.90
34766;DHT22;20984;43.508;1.504;2023-09-30T11:59:24;26.60;99.90
34766;DHT22;20984;43.508;1.504;2023-09-30T12:01:49;26.60;99.90
34766;DHT22;20984;43.508;1.504;2023-09-30T12:04:17;26.70;99.90
34766;DHT22;20984;43.508;1.504;2023-09-30T12:06:44;26.60;99.90
34766;DHT22;20984;43.508;1.504;2023-09-30T12:09:10;26.70;99.90
34766;DHT22;20984;43.508;1.504;2023-09-30T12:11:40;26.80;99.90
34766;DHT22;20984;43.508;1.504;2023-09-30T12:14:12;26.80;99.90
34766;DHT22;20984;43.508;1.504;2023-09-30T12:16:38;26.90;99.90
34766;DHT22;20984;43.508;1.504;2023-09-30T12:19:03;27.00;99.90
34766;DHT22;20984;43.508;1.504;2023-09-30T12:21:31;27.00;99.90
34766;DHT22;20984;43.508;1.504;2023-09-30T12:23:57;27.10;99.90
34766;DHT22;20984;43.508;1.504;2023-09-30T12:26:22;27.10;99.90
34766;DHT22;20984;43.508;1.504;2023-09-30T12:28:49;27.20;99.90
34766;DHT22;20984;43.508;1.504;2023-09-30T12:31:15;27.30;99.90
34766;DHT22;20984;43.508;1.504;2023-09-30T12:33:41;27.20;99.90
34766;DHT22;20984;43.508;1.504;2023-09-30T12:36:06;27.30;99.90
34766;DHT22;20984;43.508;1.504;2023-09-30T12:38:33;27.50;99.90
34766;DHT22;20984;43.508;1.504;2023-09-30T12:40:58;27.50;99.90
34766;DHT22;20984;43.508;1.504;2023-09-30T12:43:24;27.60;99.90
34766;DHT22;20984;43.508;1.504;2023-09-30T12:45:50;27.60;99.90
34766;DHT22;20984;43.508;1.504;2023-09-30T12:48:16;27.70;99.90
34766;DHT22;20984;43.508;1.504;2023-09-30T12:50:43;27.70;99.90
34766;DHT22;20984;43.508;1.504;2023-09-30T12:53:08;27.70;99.90
34766;DHT22;20984;43.508;1.504;2023-09-30T12:55:34;27.80;99.90
34766;DHT22;20984;43.508;1.504;2023-09-30T12:57:59;27.80;99.90
34766;DHT22;20984;43.508;1.504;2023-09-30T13:00:25;27.80;99.90
34766;DHT22;20984;43.508;1.504;2023-09-30T13:02:51;27.80;99.90
34766;DHT22;20984;43.508;1.504;2023-09-30T13:05:17;27.90;99.90
34766;DHT22;20984;43.508;1.504;2023-09-30T13:07:43;27.70;99.90
34766;DHT22;20984;43.508;1.504;2023-09-30T13:10:09;27.50;99.90
34766;DHT22;20984;43.508;1.504;2023-09-30T13:12:35;27.70;99.90
34766;DHT22;20984;43.508;1.504;2023-09-30T13:15:00;27.90;99.90
34766;DHT22;20984;43.508;1.504;2023-09-30T13:17:26;28.00;99.90
34766;DHT22;20984;43.508;1.504;2023-09-30T13:19:52;28.00;99.90
34766;DHT22;20984;43.508;1.504;2023-09-30T13:22:17;28.00;99.90
34766;DHT22;20984;43.508;1.504;2023-09-30T13:24:43;27.80;99.90
34766;DHT22;20984;43.508;1.504;2023-09-30T13:27:09;27.80;99.90
34766;DHT22;20984;43.508;1.504;2023-09-30T13:29:34;27.90;99.90
34766;DHT22;20984;43.508;1.504;2023-09-30T13:32:00;27.90;99.90
34766;DHT22;20984;43.508;1.504;2023-09-30T13:34:26;28.00;99.90
34766;DHT22;20984;43.508;1.504;2023-09-30T13:36:52;28.10;99.90
34766;DHT22;20984;43.508;1.504;2023-09-30T13:39:17;28.00;99.90
34766;DHT22;20984;43.508;1.504;2023-09-30T13:41:43;28.20;99.90
34766;DHT22;20984;43.508;1.504;2023-09-30T13:44:09;28.20;99.90
34766;DHT22;20984;43.508;1.504;2023-09-30T13:46:35;28.30;99.90
34766;DHT22;20984;43.508;1.504;2023-09-30T13:49:00;28.40;99.90
34766;DHT22;20984;43.508;1.504;2023-09-30T13:51:26;28.50;99.90
34766;DHT22;20984;43.508;1.504;2023-09-30T13:53:51;28.50;99.90
34766;DHT22;20984;43.508;1.504;2023-09-30T13:56:18;28.60;99.90
34766;DHT22;20984;43.508;1.504;2023-09-30T13:58:44;28.60;99.90
34766;DHT22;20984;43.508;1.504;2023-09-30T14:01:09;28.60;99.90
34766;DHT22;20984;43.508;1.504;2023-09-30T14:03:36;28.70;99.90
34766;DHT22;20984;43.508;1.504;2023-09-30T14:06:01;28.70;99.90
34766;DHT22;20984;43.508;1.504;2023-09-30T14:08:27;28.70;99.90
34766;DHT22;20984;43.508;1.504;2023-09-30T14:10:52;28.80;99.90
34766;DHT22;20984;43.508;1.504;2023-09-30T14:13:18;28.90;99.90
34766;DHT22;20984;43.508;1.504;2023-09-30T14:15:44;28.90;99.90
34766;DHT22;20984;43.508;1.504;2023-09-30T14:18:10;28.90;99.90
34766;DHT22;20984;43.508;1.504;2023-09-30T14:20:35;29.00;99.90
34766;DHT22;20984;43.508;1.504;2023-09-30T14:23:01;29.00;99.90
34766;DHT22;20984;43.508;1.504;2023-09-30T14:25:27;29.00;99.90
34766;DHT22;20984;43.508;1.504;2023-09-30T14:27:56;29.10;99.90
34766;DHT22;20984;43.508;1.504;2023-09-30T14:30:38;29.10;99.90
34766;DHT22;20984;43.508;1.504;2023-09-30T14:33:04;29.20;99.90
34766;DHT22;20984;43.508;1.504;2023-09-30T14:35:29;29.20;99.90
34766;DHT22;20984;43.508;1.504;2023-09-30T14:37:55;29.20;99.90
34766;DHT22;20984;43.508;1.504;2023-09-30T14:40:22;29.30;99.90
34766;DHT22;20984;43.508;1.504;2023-09-30T14:42:47;29.30;99.90
34766;DHT22;20984;43.508;1.504;2023-09-30T14:45:13;29.40;99.90
34766;DHT22;20984;43.508;1.504;2023-09-30T14:47:38;29.40;99.90
34766;DHT22;20984;43.508;1.504;2023-09-30T14:50:07;29.50;99.90
34766;DHT22;20984;43.508;1.504;2023-09-30T14:52:33;29.60;99.90
34766;DHT22;20984;43.508;1.504;2023-09-30T14:54:59;29.70;99.90
34766;DHT22;20984;43.508;1.504;2023-09-30T14:57:25;29.80;99.80
34766;DHT22;20984;43.508;1.504;2023-09-30T14:59:50;29.70;99.90
34766;DHT22;20984;43.508;1.504;2023-09-30T15:02:16;29.70;99.10
34766;DHT22;20984;43.508;1.504;2023-09-30T15:04:41;29.70;99.90
34766;DHT22;20984;43.508;1.504;2023-09-30T15:07:07;29.60;99.90
34766;DHT22;20984;43.508;1.504;2023-09-30T15:09:33;29.50;99.90
34766;DHT22;20984;43.508;1.504;2023-09-30T15:11:58;29.40;99.90
34766;DHT22;20984;43.508;1.504;2023-09-30T15:14:24;29.20;99.80
34766;DHT22;20984;43.508;1.504;2023-09-30T15:16:49;29.10;99.90
34766;DHT22;20984;43.508;1.504;2023-09-30T15:19:15;28.90;99.90
34766;DHT22;20984;43.508;1.504;2023-09-30T15:21:40;28.80;99.90
34766;DHT22;20984;43.508;1.504;2023-09-30T15:24:06;28.60;99.90
34766;DHT22;20984;43.508;1.504;2023-09-30T15:26:32;28.50;99.90
34766;DHT22;20984;43.508;1.504;2023-09-30T15:28:57;28.50;99.90
34766;DHT22;20984;43.508;1.504;2023-09-30T15:31:27;28.60;99.90
34766;DHT22;20984;43.508;1.504;2023-09-30T15:33:53;28.90;99.90
34766;DHT22;20984;43.508;1.504;2023-09-30T15:36:18;29.40;99.90
34766;DHT22;20984;43.508;1.504;2023-09-30T15:38:45;29.50;99.30
34766;DHT22;20984;43.508;1.504;2023-09-30T15:41:12;30.00;99.20
34766;DHT22;20984;43.508;1.504;2023-09-30T15:43:38;30.50;97.20
34766;DHT22;20984;43.508;1.504;2023-09-30T15:46:03;30.90;97.40
34766;DHT22;20984;43.508;1.504;2023-09-30T15:48:29;30.70;97.70